Terminal Aerodrome Forecast
Issued by NWS

Home | Current Version | Previous Version | Text Only | Print | Product List | Glossary On
Versions: 1 2 3 4 5 6 7 8 9 10 11 12 13 14 15
955
FTUS44 KLUB 201744
TAFCDS
TAF
KCDS 201744Z 2018/2118 14025G33KT P6SM SCT040 SCT090
     FM210400 VRB25G35KT 5SM TSRA SCT025 BKN035CB
     FM210600 12010KT P6SM -SHRA SCT010 BKN025=

USA.gov is the U.S. government's official web portal to all federal, state and local government web resources and services.